Time;durP1;ratioP1;P1;durP2;ratioP2;P2;SDS_P1;SDS_P2;PMS_P1;PMS_P2;Temp;Humidity;BMP_temperature;BMP_pressure;BME280_temperature;BME280_humidity;BME280_pressure;Samples;Min_cycle;Max_cycle;Signal;HPM_P1;HPM_P2
2022/02/18 00:00:39;;;;;;;34.22;6.45;;;;;;;11.64;70.25;99342.09;4972840;28;20027;-96
2022/02/18 00:03:04;;;;;;;32.95;5.65;;;;;;;11.06;72.19;99332.31;4972824;28;20029;-96
2022/02/18 00:05:30;;;;;;;40.70;5.43;;;;;;;11.10;71.84;99322.38;4959139;28;20050;-95
2022/02/18 00:07:55;;;;;;;28.65;4.40;;;;;;;11.50;71.26;99296.00;4958038;28;20031;-96
2022/02/18 00:10:21;;;;;;;45.28;5.32;;;;;;;10.87;73.39;99283.16;4960469;28;20035;-96
2022/02/18 00:12:46;;;;;;;34.65;5.82;;;;;;;10.95;73.98;99298.25;4957551;28;20030;-94
2022/02/18 00:15:12;;;;;;;28.73;5.63;;;;;;;11.02;74.34;99278.38;4957291;28;20469;-94
2022/02/18 00:17:38;;;;;;;32.63;5.03;;;;;;;11.02;74.32;99281.00;4972417;28;20049;-96
2022/02/18 00:20:05;;;;;;;52.13;6.13;;;;;;;11.16;74.03;99263.19;4976416;28;20050;-94
2022/02/18 00:22:30;;;;;;;38.22;6.40;;;;;;;10.96;75.04;99251.81;4976794;28;20050;-96
2022/02/18 00:24:56;;;;;;;34.47;5.22;;;;;;;10.97;75.68;99254.31;4976243;28;20121;-96
2022/02/18 00:27:21;;;;;;;38.65;5.57;;;;;;;10.65;76.33;99252.69;4976189;28;20030;-94
2022/02/18 00:29:47;;;;;;;46.00;6.03;;;;;;;10.66;77.12;99246.50;4976052;28;20031;-95
2022/02/18 00:32:12;;;;;;;39.97;4.90;;;;;;;10.80;77.74;99220.81;4975346;28;20042;-96
2022/02/18 00:34:39;;;;;;;29.08;4.65;;;;;;;10.89;77.47;99225.25;4976356;28;20034;-96
2022/02/18 00:37:05;;;;;;;41.05;5.05;;;;;;;11.00;76.80;99204.16;4976214;28;20023;-94
2022/02/18 00:39:31;;;;;;;24.85;4.00;;;;;;;11.04;77.50;99184.50;4976744;28;20027;-95
2022/02/18 00:41:57;;;;;;;40.40;5.60;;;;;;;10.76;78.52;99166.91;4976166;28;20455;-95
2022/02/18 00:44:22;;;;;;;33.20;5.00;;;;;;;10.69;79.41;99154.31;4975925;28;20501;-96
2022/02/18 00:46:48;;;;;;;26.13;4.38;;;;;;;11.01;78.65;99140.13;4966874;28;20039;-93
2022/02/18 00:49:13;;;;;;;30.10;4.65;;;;;;;11.01;78.24;99134.88;4956013;28;20043;-95
2022/02/18 00:51:39;;;;;;;32.63;4.88;;;;;;;11.03;77.46;99114.53;4957479;28;20031;-94
2022/02/18 00:54:04;;;;;;;25.52;4.03;;;;;;;11.08;77.94;99093.97;4957090;28;20055;-95
2022/02/18 00:56:29;;;;;;;28.75;4.10;;;;;;;10.74;79.81;99101.41;4957329;28;20039;-95
2022/02/18 00:58:55;;;;;;;24.73;3.67;;;;;;;11.03;78.74;99093.53;4957194;28;20031;-95
2022/02/18 01:01:20;;;;;;;24.65;3.25;;;;;;;11.03;78.61;99090.09;4961973;28;20601;-94
2022/02/18 01:03:46;;;;;;;21.20;3.67;;;;;;;11.27;77.44;99092.25;4975292;28;20082;-94
2022/02/18 01:06:12;;;;;;;19.75;3.70;;;;;;;10.93;78.65;99063.00;4974968;28;20030;-94
2022/02/18 01:08:37;;;;;;;18.75;3.50;;;;;;;11.14;78.08;99050.53;4976375;28;20110;-96
2022/02/18 01:11:03;;;;;;;15.55;3.13;;;;;;;10.98;79.15;99019.59;4975528;28;20381;-95
2022/02/18 01:13:29;;;;;;;19.38;2.88;;;;;;;11.29;77.68;99017.59;4976546;28;20019;-93
2022/02/18 01:15:55;;;;;;;17.08;2.72;;;;;;;11.02;79.05;99015.72;4970120;28;20019;-94
2022/02/18 01:18:21;;;;;;;14.40;2.75;;;;;;;11.20;78.39;99017.63;4957352;28;20027;-94
2022/02/18 01:20:47;;;;;;;17.58;2.60;;;;;;;11.02;78.79;98989.47;4957880;28;20027;-94
2022/02/18 01:23:12;;;;;;;15.98;2.45;;;;;;;11.25;77.64;98966.28;4960273;28;20029;-94
2022/02/18 01:25:38;;;;;;;13.43;1.98;;;;;;;11.22;78.16;98947.38;4960894;28;20041;-94
2022/02/18 01:28:04;;;;;;;15.60;2.65;;;;;;;11.37;77.56;98930.13;4961128;28;20024;-93
2022/02/18 01:30:30;;;;;;;13.35;1.80;;;;;;;11.20;78.88;98934.38;4963062;28;20023;-95
2022/02/18 01:32:56;;;;;;;11.55;1.88;;;;;;;11.16;79.71;98932.16;4970970;28;20019;-92
2022/02/18 01:35:21;;;;;;;11.15;2.15;;;;;;;11.30;78.49;98939.59;4976033;28;20054;-92
2022/02/18 01:37:51;;;;;;;9.52;1.63;;;;;;;11.24;79.12;98927.84;4974379;28;20031;-94
2022/02/18 01:40:17;;;;;;;10.43;1.90;;;;;;;11.48;78.21;98924.69;4992744;28;20169;-93
2022/02/18 01:42:43;;;;;;;9.52;1.60;;;;;;;11.37;78.91;98909.13;4995818;28;20031;-93
2022/02/18 01:45:09;;;;;;;5.30;1.30;;;;;;;11.39;79.60;98896.66;4992428;28;20026;-94
2022/02/18 01:47:35;;;;;;;3.28;1.00;;;;;;;11.38;80.04;98895.03;4996324;28;20058;-93
2022/02/18 01:50:01;;;;;;;8.15;1.35;;;;;;;11.50;79.83;98887.75;4987753;28;20034;-94
2022/02/18 01:52:31;;;;;;;4.63;1.10;;;;;;;11.60;79.43;98872.75;4992809;28;20054;-94
2022/02/18 01:54:57;;;;;;;2.83;0.82;;;;;;;11.72;79.75;98852.34;4980922;28;20042;-95
2022/02/18 01:57:24;;;;;;;2.97;0.45;;;;;;;11.52;82.03;98841.13;4977617;28;20063;-93
2022/02/18 01:59:50;;;;;;;4.30;0.60;;;;;;;11.59;82.56;98838.72;5010840;28;20038;-95
2022/02/18 02:02:15;;;;;;;1.98;0.40;;;;;;;11.73;82.71;98822.44;4993823;28;20027;-95
2022/02/18 02:04:44;;;;;;;4.43;0.40;;;;;;;12.12;79.97;98822.13;4998526;28;20035;-96
2022/02/18 02:07:10;;;;;;;1.55;0.38;;;;;;;11.94;81.77;98814.25;4992456;28;20050;-95
2022/02/18 02:09:36;;;;;;;2.65;0.40;;;;;;;12.35;79.57;98813.75;4995368;28;20027;-96
2022/02/18 02:12:03;;;;;;;2.17;0.43;;;;;;;12.28;79.59;98803.00;4995384;28;20038;-95
2022/02/18 02:14:28;;;;;;;2.20;0.40;;;;;;;12.30;81.26;98780.81;4991261;28;20128;-95
2022/02/18 02:16:54;;;;;;;2.40;0.32;;;;;;;12.34;81.27;98754.19;4992841;28;20126;-94
2022/02/18 02:19:19;;;;;;;2.13;0.30;;;;;;;12.22;82.72;98743.94;4987290;28;20031;-95
2022/02/18 02:21:51;;;;;;;2.25;0.40;;;;;;;12.22;83.66;98740.47;4984519;28;20037;-96
2022/02/18 02:24:18;;;;;;;4.07;0.98;;;;;;;12.41;83.36;98715.72;4975663;28;20023;-95
2022/02/18 02:26:43;;;;;;;4.05;0.50;;;;;;;12.17;87.35;98690.94;4974261;28;20114;-95
2022/02/18 02:29:14;;;;;;;5.10;0.50;;;;;;;12.32;87.08;98688.53;4975044;28;20042;-95
2022/02/18 02:31:40;;;;;;;2.10;0.50;;;;;;;12.36;88.10;98682.00;4974872;28;20508;-96
2022/02/18 02:34:06;;;;;;;5.43;0.98;;;;;;;12.57;87.55;98670.22;4975012;28;20022;-95
2022/02/18 02:36:32;;;;;;;3.65;0.57;;;;;;;12.66;86.87;98667.47;4975144;28;20023;-96
2022/02/18 02:38:58;;;;;;;7.45;1.13;;;;;;;12.69;88.65;98663.66;4975893;28;20031;-95
2022/02/18 02:41:23;;;;;;;4.70;0.82;;;;;;;12.67;89.44;98655.94;4975569;28;20030;-95
2022/02/18 02:43:49;;;;;;;3.17;0.90;;;;;;;12.92;87.68;98647.28;4974998;28;20025;-96
2022/02/18 02:46:15;;;;;;;8.63;2.08;;;;;;;12.96;88.18;98636.25;4974742;28;20030;-96
2022/02/18 02:48:41;;;;;;;10.45;1.98;;;;;;;13.05;88.08;98616.84;4975038;28;20034;-96
2022/02/18 02:51:07;;;;;;;12.02;3.38;;;;;;;13.26;86.76;98628.69;4970869;28;20397;-95
2022/02/18 02:53:33;;;;;;;8.20;1.08;;;;;;;13.27;88.35;98610.06;4974434;28;20019;-96
2022/02/18 02:55:59;;;;;;;8.63;1.50;;;;;;;13.33;88.25;98602.50;4973330;28;20029;-95
2022/02/18 02:58:25;;;;;;;4.80;1.25;;;;;;;13.43;86.25;98593.44;4958419;28;20020;-93
2022/02/18 03:00:51;;;;;;;8.82;1.52;;;;;;;13.42;86.92;98588.34;4967610;28;20074;-95
2022/02/18 03:03:17;;;;;;;14.15;1.58;;;;;;;13.64;85.65;98568.34;4963351;28;20027;-96
2022/02/18 03:05:42;;;;;;;6.38;1.38;;;;;;;13.44;88.09;98563.44;4955643;28;20034;-96
2022/02/18 03:08:08;;;;;;;11.18;1.90;;;;;;;13.84;84.77;98576.69;4955706;28;20054;-96
2022/02/18 03:10:33;;;;;;;12.60;2.00;;;;;;;13.87;84.48;98547.34;4955354;28;20393;-96
2022/02/18 03:12:59;;;;;;;10.25;1.65;;;;;;;14.19;82.09;98561.38;4973766;28;20564;-96
2022/02/18 03:15:25;;;;;;;11.07;1.75;;;;;;;14.01;82.70;98548.44;4974525;28;20023;-96
2022/02/18 03:17:50;;;;;;;11.65;1.92;;;;;;;14.15;83.13;98545.06;4967969;28;20031;-96
2022/02/18 03:20:16;;;;;;;15.02;3.08;;;;;;;14.05;83.55;98536.56;4955031;28;20537;-96
2022/02/18 03:22:41;;;;;;;13.32;1.75;;;;;;;14.05;83.56;98520.72;4954803;28;20031;-96
2022/02/18 03:25:07;;;;;;;10.73;1.42;;;;;;;14.01;84.24;98527.34;4954275;28;20027;-96
2022/02/18 03:27:33;;;;;;;10.38;1.33;;;;;;;13.99;84.04;98516.94;4954856;28;20027;-94
2022/02/18 03:29:58;;;;;;;6.38;1.88;;;;;;;14.17;83.34;98500.84;4953985;28;20023;-95
2022/02/18 03:32:24;;;;;;;6.25;1.48;;;;;;;13.89;84.65;98498.69;4959262;28;20030;-96
2022/02/18 03:34:49;;;;;;;6.50;1.05;;;;;;;14.17;83.20;98474.47;4973845;28;20019;-96
2022/02/18 03:37:15;;;;;;;7.65;1.25;;;;;;;14.11;83.17;98469.06;4973666;28;20015;-96
2022/02/18 03:39:40;;;;;;;7.75;1.20;;;;;;;14.40;81.23;98479.75;4973540;28;20172;-96
2022/02/18 03:42:06;;;;;;;4.88;0.90;;;;;;;14.78;78.94;98481.66;4973888;28;20481;-95
2022/02/18 03:44:31;;;;;;;7.13;1.33;;;;;;;14.66;78.82;98468.84;4973518;28;20035;-96
2022/02/18 03:46:57;;;;;;;5.10;1.15;;;;;;;14.94;77.53;98459.53;4974087;28;20031;-96
2022/02/18 03:49:22;;;;;;;5.88;1.20;;;;;;;14.56;79.27;98459.50;4989657;28;20169;-96
2022/02/18 03:51:48;;;;;;;5.75;0.80;;;;;;;14.55;80.49;98447.28;4973023;28;20046;-94
2022/02/18 03:54:13;;;;;;;4.00;0.73;;;;;;;14.83;78.52;98445.78;4972928;28;20436;-95
2022/02/18 03:56:39;;;;;;;6.47;0.65;;;;;;;14.55;79.44;98445.47;4972826;28;20500;-95
2022/02/18 03:59:04;;;;;;;6.75;1.67;;;;;;;14.43;81.38;98450.34;4972761;28;20473;-96
2022/02/18 04:01:30;;;;;;;5.25;0.75;;;;;;;14.50;80.13;98415.34;4970261;28;20038;-94
2022/02/18 04:03:55;;;;;;;7.57;1.00;;;;;;;14.70;79.27;98405.94;4953461;28;20477;-94
2022/02/18 04:06:21;;;;;;;5.97;0.98;;;;;;;14.44;81.13;98416.88;4953362;28;20039;-94
2022/02/18 04:08:46;;;;;;;3.33;0.63;;;;;;;14.50;81.63;98416.16;4953610;28;20078;-94
2022/02/18 04:11:11;;;;;;;7.95;0.95;;;;;;;14.95;78.86;98398.59;4966545;28;20122;-94
2022/02/18 04:13:37;;;;;;;5.47;0.80;;;;;;;14.95;78.38;98389.81;4973963;28;20485;-95
2022/02/18 04:16:02;;;;;;;2.53;0.65;;;;;;;15.00;78.19;98387.47;4974380;28;20086;-94
2022/02/18 04:18:28;;;;;;;5.35;0.80;;;;;;;14.61;79.67;98375.31;4968841;28;20167;-94
2022/02/18 04:20:53;;;;;;;5.43;0.68;;;;;;;14.83;79.32;98373.59;4962689;28;20094;-94
2022/02/18 04:23:18;;;;;;;3.38;0.70;;;;;;;14.60;80.47;98361.28;4952981;28;20031;-94
2022/02/18 04:25:44;;;;;;;2.75;0.70;;;;;;;14.82;79.48;98380.72;4953346;28;20111;-95
2022/02/18 04:28:09;;;;;;;3.47;0.85;;;;;;;14.54;81.49;98356.69;4953732;28;20035;-93
2022/02/18 04:30:35;;;;;;;8.60;0.73;;;;;;;14.68;80.16;98345.34;4953865;28;20537;-95
2022/02/18 04:33:00;;;;;;;3.67;0.70;;;;;;;14.91;79.14;98351.56;4952674;28;20113;-94
2022/02/18 04:35:26;;;;;;;5.50;0.80;;;;;;;14.85;79.42;98351.28;4961081;28;20551;-93
2022/02/18 04:37:52;;;;;;;6.40;1.10;;;;;;;14.82;79.37;98335.78;4972944;28;20031;-94
2022/02/18 04:40:18;;;;;;;4.80;0.60;;;;;;;14.79;79.53;98327.41;4972857;28;20500;-94
2022/02/18 04:42:44;;;;;;;5.38;0.65;;;;;;;14.88;79.49;98313.09;4972735;28;20022;-93
2022/02/18 04:45:10;;;;;;;1.05;0.30;;;;;;;14.91;79.09;98304.00;4972854;28;20039;-93
2022/02/18 04:47:35;;;;;;;3.58;0.90;;;;;;;14.82;80.10;98305.91;4973195;28;20031;-93
2022/02/18 04:50:01;;;;;;;3.00;0.40;;;;;;;14.96;78.79;98288.41;4972858;28;20497;-94
2022/02/18 04:52:27;;;;;;;2.65;0.57;;;;;;;15.05;77.79;98274.91;4976802;28;20027;-94
2022/02/18 04:54:54;;;;;;;8.13;1.88;;;;;;;14.75;79.76;98281.22;4976632;28;20027;-94
2022/02/18 04:57:20;;;;;;;1.20;0.28;;;;;;;14.72;80.71;98250.72;4975623;28;20027;-95
2022/02/18 04:59:45;;;;;;;5.13;0.60;;;;;;;14.91;79.28;98237.94;4975176;28;20033;-94
2022/02/18 05:02:11;;;;;;;6.43;0.73;;;;;;;14.60;80.59;98260.94;4975126;28;20027;-94
2022/02/18 05:04:36;;;;;;;2.28;0.40;;;;;;;14.67;80.87;98259.22;4974534;28;20034;-96
2022/02/18 05:07:02;;;;;;;3.38;0.68;;;;;;;14.78;80.26;98228.84;4975068;28;20023;-94
2022/02/18 05:09:27;;;;;;;1.42;0.30;;;;;;;15.01;78.56;98223.44;4974723;28;20121;-95
2022/02/18 05:11:53;;;;;;;2.88;0.65;;;;;;;14.80;79.36;98242.69;4976433;28;20027;-95
2022/02/18 05:14:18;;;;;;;2.70;0.52;;;;;;;14.84;78.52;98269.56;4975310;28;20027;-94
2022/02/18 05:16:44;;;;;;;3.90;0.45;;;;;;;14.83;78.25;98267.91;4976920;28;20031;-94
2022/02/18 05:19:10;;;;;;;2.45;0.50;;;;;;;14.76;79.14;98251.19;4960364;28;20031;-95
2022/02/18 05:21:39;;;;;;;1.55;0.40;;;;;;;14.98;77.21;98250.22;4957255;28;20108;-95
2022/02/18 05:24:06;;;;;;;4.05;0.47;;;;;;;14.93;77.46;98242.03;4956012;28;20433;-95
2022/02/18 05:26:32;;;;;;;2.47;0.30;;;;;;;14.77;78.10;98227.22;4956144;28;20541;-94
2022/02/18 05:28:57;;;;;;;1.25;0.28;;;;;;;14.66;77.83;98223.22;4955793;28;20078;-93
2022/02/18 05:31:23;;;;;;;1.13;0.30;;;;;;;14.88;77.24;98231.19;4955921;28;20028;-95
2022/02/18 05:33:48;;;;;;;2.92;0.43;;;;;;;14.87;77.02;98221.66;4970804;28;20238;-95
2022/02/18 05:36:13;;;;;;;3.35;0.50;;;;;;;14.93;76.41;98231.47;4976244;28;20038;-94
2022/02/18 05:38:43;;;;;;;3.05;0.40;;;;;;;14.76;76.05;98224.75;4976111;28;20054;-94
2022/02/18 05:41:09;;;;;;;3.95;0.50;;;;;;;14.64;76.49;98203.28;4969590;28;20062;-94
2022/02/18 05:43:34;;;;;;;3.67;0.65;;;;;;;14.37;76.53;98188.88;4957137;28;20031;-93
2022/02/18 05:46:00;;;;;;;3.30;0.52;;;;;;;14.76;74.81;98177.22;4956730;28;20035;-95
2022/02/18 05:48:25;;;;;;;1.90;0.60;;;;;;;14.68;74.43;98163.09;4956292;28;20031;-96
2022/02/18 05:50:50;;;;;;;6.60;1.38;;;;;;;14.68;74.26;98155.19;4955264;28;20134;-95
2022/02/18 05:53:16;;;;;;;1.23;0.38;;;;;;;14.73;73.73;98153.81;4955624;28;20121;-96
2022/02/18 05:55:41;;;;;;;4.45;0.52;;;;;;;14.65;73.67;98155.56;4959746;28;20074;-96
2022/02/18 05:58:07;;;;;;;3.40;0.65;;;;;;;14.67;73.50;98150.06;4974657;28;20031;-95
2022/02/18 06:00:32;;;;;;;5.57;0.60;;;;;;;14.79;72.55;98138.03;4974645;28;20027;-96
2022/02/18 06:02:58;;;;;;;4.22;0.80;;;;;;;14.52;72.60;98121.03;4973329;28;20027;-95
2022/02/18 06:05:23;;;;;;;7.90;1.02;;;;;;;14.51;73.46;98127.31;4974562;28;20027;-95
2022/02/18 06:07:48;;;;;;;7.03;0.90;;;;;;;14.55;73.01;98119.84;4974380;28;20026;-96
2022/02/18 06:10:14;;;;;;;8.02;1.52;;;;;;;14.63;72.56;98138.25;4969124;28;20023;-96
2022/02/18 06:12:39;;;;;;;5.80;1.05;;;;;;;14.19;72.87;98115.34;4988095;28;20027;-95
2022/02/18 06:15:05;;;;;;;6.70;1.00;;;;;;;13.98;73.84;98124.00;4993366;28;20034;-94
2022/02/18 06:17:30;;;;;;;11.32;1.27;;;;;;;14.11;73.96;98158.47;4993213;28;20045;-94
2022/02/18 06:19:56;;;;;;;9.75;1.70;;;;;;;13.86;73.92;98140.28;4980881;28;20113;-94
2022/02/18 06:22:22;;;;;;;11.05;1.70;;;;;;;14.01;73.59;98131.56;4970845;28;20125;-93
2022/02/18 06:24:47;;;;;;;9.18;1.40;;;;;;;14.29;73.13;98140.44;4967815;28;20062;-94
2022/02/18 06:27:12;;;;;;;7.57;1.80;;;;;;;14.20;73.10;98148.69;4973594;28;20026;-94
2022/02/18 06:29:38;;;;;;;11.63;1.63;;;;;;;14.31;72.19;98147.38;4955762;28;20055;-94
2022/02/18 06:32:07;;;;;;;13.55;2.28;;;;;;;13.82;73.05;98149.56;4961958;28;20039;-94
2022/02/18 06:34:32;;;;;;;12.98;2.22;;;;;;;13.80;72.72;98150.72;4965819;28;20042;-94
2022/02/18 06:36:58;;;;;;;16.42;2.13;;;;;;;14.18;71.59;98132.19;4954215;28;20031;-95
2022/02/18 06:39:23;;;;;;;13.23;2.60;;;;;;;13.78;70.30;98123.72;4956042;28;20031;-94
2022/02/18 06:41:49;;;;;;;23.60;3.42;;;;;;;13.55;69.86;98131.69;4956865;28;20557;-94
2022/02/18 06:44:15;;;;;;;19.50;3.85;;;;;;;13.42;68.65;98143.66;4967697;28;20022;-94
2022/02/18 06:46:41;;;;;;;21.83;3.80;;;;;;;13.60;67.74;98118.78;4960980;28;20031;-94
2022/02/18 06:49:07;;;;;;;29.52;4.93;;;;;;;13.12;65.53;98123.47;4954001;28;20034;-94
2022/02/18 06:51:33;;;;;;;34.97;5.78;;;;;;;13.30;65.16;98139.81;4969571;28;20035;-95
2022/02/18 06:53:58;;;;;;;44.08;6.82;;;;;;;13.29;65.29;98127.63;4955880;28;20041;-93
2022/02/18 06:56:24;;;;;;;36.13;6.03;;;;;;;13.17;64.62;98114.03;4969604;28;20126;-95
2022/02/18 06:58:52;;;;;;;45.53;6.85;;;;;;;13.09;64.65;98107.00;4966215;28;20550;-95
2022/02/18 07:01:17;;;;;;;36.83;6.25;;;;;;;13.00;65.03;98088.81;4963442;28;20389;-95
2022/02/18 07:03:43;;;;;;;30.15;5.18;;;;;;;12.85;64.76;98101.91;4975162;28;20062;-94
2022/02/18 07:06:08;;;;;;;39.30;9.38;;;;;;;12.66;65.03;98132.97;4966393;28;20038;-95
2022/02/18 07:08:34;;;;;;;35.38;5.53;;;;;;;12.53;65.15;98152.94;4972723;28;20035;-96
2022/02/18 07:10:59;;;;;;;47.15;7.05;;;;;;;12.65;65.06;98130.50;4969378;28;20125;-95
2022/02/18 07:13:25;;;;;;;37.08;6.10;;;;;;;12.75;64.61;98119.75;4955093;28;20031;-96
2022/02/18 07:15:50;;;;;;;45.78;8.43;;;;;;;12.66;64.97;98104.00;4956399;28;20039;-95
2022/02/18 07:18:16;;;;;;;33.60;6.00;;;;;;;12.75;65.11;98117.13;4956300;28;20050;-96
2022/02/18 07:20:43;;;;;;;35.78;6.45;;;;;;;12.67;65.60;98104.81;4973040;28;20026;-94
2022/02/18 07:23:09;;;;;;;35.05;5.85;;;;;;;12.21;67.03;98112.63;4974131;28;20089;-96
2022/02/18 07:25:35;;;;;;;33.20;6.57;;;;;;;12.29;66.73;98094.19;4973341;28;20030;-96
2022/02/18 07:28:01;;;;;;;45.75;6.72;;;;;;;12.38;66.54;98103.69;4971371;28;20029;-96
2022/02/18 07:30:27;;;;;;;44.25;5.80;;;;;;;12.12;65.35;98080.25;4957766;28;20031;-95
2022/02/18 07:32:53;;;;;;;46.63;5.88;;;;;;;11.99;65.04;98080.81;4961433;28;20373;-95
2022/02/18 07:35:20;;;;;;;35.88;5.93;;;;;;;12.10;63.55;98105.91;4970432;28;20034;-96
2022/02/18 07:37:49;;;;;;;34.53;5.38;;;;;;;11.99;63.93;98093.16;4972757;28;20074;-96
2022/02/18 07:40:15;;;;;;;43.03;6.90;;;;;;;11.61;62.81;98090.25;4973134;28;20117;-95
2022/02/18 07:42:42;;;;;;;23.85;4.85;;;;;;;11.78;60.99;98076.09;4971095;28;20466;-95
2022/02/18 07:45:08;;;;;;;29.33;5.00;;;;;;;12.23;61.06;98077.25;4966546;28;20121;-95
2022/02/18 07:47:33;;;;;;;31.60;5.25;;;;;;;12.17;61.26;98056.09;4972432;28;20445;-95
2022/02/18 07:49:59;;;;;;;36.65;5.88;;;;;;;11.87;61.87;98061.94;4989156;28;20125;-96
2022/02/18 07:52:24;;;;;;;24.25;4.68;;;;;;;11.93;60.98;98041.22;4972856;28;20197;-95
2022/02/18 07:54:50;;;;;;;35.50;5.93;;;;;;;11.62;60.86;98037.53;4974028;28;20065;-95
2022/02/18 07:57:15;;;;;;;31.23;5.68;;;;;;;11.92;59.75;98027.25;4972575;28;20041;-96
2022/02/18 07:59:41;;;;;;;27.30;4.88;;;;;;;11.98;60.02;98034.47;4968122;28;20038;-92
2022/02/18 08:02:06;;;;;;;25.38;4.53;;;;;;;11.83;59.76;98010.69;4961256;28;20023;-92
2022/02/18 08:04:32;;;;;;;31.73;6.03;;;;;;;11.85;59.48;98000.00;4970505;28;20023;-96
2022/02/18 08:06:58;;;;;;;44.13;6.22;;;;;;;11.94;58.20;98000.78;4978746;28;20042;-96
2022/02/18 08:09:44;;;;;;;27.10;3.88;;;;;;;11.85;59.47;97971.06;5000271;23;20050;-96
2022/02/18 08:12:10;;;;;;;20.02;3.65;;;;;;;11.90;58.66;97968.75;5278774;23;20051;-96
2022/02/18 08:14:36;;;;;;;36.92;5.15;;;;;;;11.70;58.89;97960.44;5012376;28;20018;-92
2022/02/18 08:17:01;;;;;;;40.17;6.18;;;;;;;11.94;58.32;97956.09;4990742;28;20034;-96
2022/02/18 08:19:27;;;;;;;32.47;5.78;;;;;;;11.46;59.00;97954.31;4973818;28;20046;-96
2022/02/18 08:21:52;;;;;;;21.98;4.72;;;;;;;11.49;58.14;97946.09;4968583;28;20061;-96
2022/02/18 08:24:19;;;;;;;34.67;5.53;;;;;;;11.69;58.56;97929.91;4964957;28;20114;-95
2022/02/18 08:26:49;;;;;;;24.65;4.68;;;;;;;12.20;57.90;97916.31;4964851;28;20031;-96
2022/02/18 08:29:22;;;;;;;23.50;4.25;;;;;;;12.04;57.31;97904.91;4969345;28;20495;-96
2022/02/18 08:31:49;;;;;;;26.35;5.15;;;;;;;12.53;56.47;97876.56;4972430;28;20074;-96
2022/02/18 08:34:14;;;;;;;34.22;6.25;;;;;;;12.43;55.97;97887.34;4964771;28;20030;-95
2022/02/18 08:36:40;;;;;;;34.38;5.28;;;;;;;12.18;56.04;97882.28;4978674;28;20476;-95
2022/02/18 08:39:08;;;;;;;28.30;5.93;;;;;;;12.21;55.66;97846.94;4977746;28;20030;-96
2022/02/18 08:41:34;;;;;;;26.10;5.18;;;;;;;12.55;54.82;97846.44;4973328;28;20015;-94
2022/02/18 08:44:00;;;;;;;31.85;5.60;;;;;;;12.61;55.50;97842.28;4974348;28;20074;-94
2022/02/18 08:46:27;;;;;;;19.73;5.00;;;;;;;12.48;55.45;97829.75;4974534;28;20039;-95
2022/02/18 08:49:06;;;;;;;41.60;5.90;;;;;;;12.21;55.01;97828.50;4984105;28;20552;-96
2022/02/18 08:51:33;;;;;;;31.52;5.93;;;;;;;12.53;54.82;97780.00;4986122;28;20049;-96
2022/02/18 08:54:02;;;;;;;27.00;5.32;;;;;;;12.04;53.74;97817.28;4990693;28;20054;-96
2022/02/18 08:56:28;;;;;;;24.98;3.97;;;;;;;12.21;54.00;97765.38;5055985;23;20018;-94
2022/02/18 09:01:21;;;;;;;34.85;5.15;;;;;;;12.67;53.39;97744.16;5066651;22;20077;-95
2022/02/18 09:03:47;;;;;;;28.02;5.07;;;;;;;12.80;52.82;97749.59;4971499;28;20496;-96
2022/02/18 09:06:12;;;;;;;29.35;5.05;;;;;;;13.10;52.09;97687.13;4972848;28;20075;-96
2022/02/18 09:08:37;;;;;;;27.70;5.07;;;;;;;12.60;51.44;97685.31;4968695;28;20035;-94
2022/02/18 09:11:04;;;;;;;24.33;4.72;;;;;;;13.00;52.72;97701.59;4973888;28;20027;-95
2022/02/18 09:13:29;;;;;;;29.60;4.43;;;;;;;13.51;51.14;97693.63;4970454;28;20121;-96
2022/02/18 09:15:54;;;;;;;26.50;4.78;;;;;;;13.10;49.43;97789.84;4976950;28;20054;-95
2022/02/18 09:18:20;;;;;;;24.45;4.32;;;;;;;13.35;49.19;97773.78;4975797;28;20027;-96
2022/02/18 09:20:47;;;;;;;21.90;4.88;;;;;;;13.22;49.25;97758.59;4971883;28;20074;-96
2022/02/18 09:23:13;;;;;;;24.00;4.20;;;;;;;13.35;50.58;97779.03;4978626;28;20030;-95
2022/02/18 09:25:40;;;;;;;25.23;3.67;;;;;;;12.93;50.46;97737.56;4977598;28;20035;-96
2022/02/18 09:28:05;;;;;;;22.10;4.00;;;;;;;12.78;51.23;97734.97;4979203;28;20469;-95
2022/02/18 09:30:37;;;;;;;23.55;4.38;;;;;;;12.77;51.69;97720.97;4980732;28;20062;-96
2022/02/18 09:33:03;;;;;;;31.02;5.07;;;;;;;12.78;52.67;97664.69;4992075;28;20016;-96
2022/02/18 09:35:30;;;;;;;37.60;4.72;;;;;;;12.81;51.70;97679.31;5329414;23;20050;-95
2022/02/18 09:37:56;;;;;;;22.42;5.07;;;;;;;13.21;51.28;97625.22;4972518;28;20042;-95
2022/02/18 09:40:21;;;;;;;36.88;4.60;;;;;;;13.64;50.06;97634.91;4948966;28;20515;-96
2022/02/18 09:42:48;;;;;;;31.27;4.90;;;;;;;14.24;49.12;97636.09;4959919;28;20034;-94
2022/02/18 09:45:15;;;;;;;30.02;4.35;;;;;;;14.45;48.24;97650.19;4958444;28;20090;-95
2022/02/18 09:47:41;;;;;;;26.13;5.40;;;;;;;14.09;48.96;97633.56;4944206;28;20028;-95
2022/02/18 09:50:08;;;;;;;30.33;4.88;;;;;;;13.67;48.91;97618.72;4971331;28;20034;-94
2022/02/18 09:52:33;;;;;;;27.20;5.15;;;;;;;13.25;50.53;97594.03;4956411;28;20362;-94
2022/02/18 09:54:59;;;;;;;31.42;5.55;;;;;;;13.12;50.84;97615.00;4958050;28;20039;-93
2022/02/18 09:57:28;;;;;;;25.80;4.70;;;;;;;12.85;52.00;97567.34;4957142;28;20031;-93
2022/02/18 09:59:53;;;;;;;30.42;4.65;;;;;;;13.33;50.85;97596.56;4952583;28;20035;-92
2022/02/18 10:02:19;;;;;;;37.50;6.35;;;;;;;12.88;51.29;97607.28;4949533;28;20106;-92
2022/02/18 10:04:45;;;;;;;17.88;3.20;;;;;;;13.18;49.92;97583.44;4955746;28;20047;-90
2022/02/18 10:07:10;;;;;;;18.95;3.75;;;;;;;12.90;51.00;97538.63;4951859;28;20434;-93
2022/02/18 10:09:44;;;;;;;16.08;3.05;;;;;;;12.80;51.52;97543.41;4953245;29;20031;-94
2022/02/18 10:12:11;;;;;;;24.40;5.35;;;;;;;13.01;51.13;97553.94;4950464;29;20028;-94
2022/02/18 10:14:59;;;;;;;21.98;3.97;;;;;;;12.83;52.04;97543.00;4951031;28;20027;-93
2022/02/18 10:17:39;;;;;;;23.20;3.55;;;;;;;12.94;51.64;97513.53;4953224;28;20042;-95
2022/02/18 10:20:17;;;;;;;23.05;3.72;;;;;;;13.06;52.18;97543.63;4956599;28;20039;-94
2022/02/18 10:23:00;;;;;;;12.05;3.35;;;;;;;12.47;52.72;97557.03;4959447;28;20467;-96
2022/02/18 10:25:30;;;;;;;14.35;2.80;;;;;;;13.10;51.36;97501.91;4946233;28;20031;-96
2022/02/18 10:27:57;;;;;;;21.07;3.57;;;;;;;12.73;53.02;97501.19;4939326;29;20024;-96
2022/02/18 10:30:25;;;;;;;14.70;2.17;;;;;;;12.66;52.99;97521.41;4940190;29;20110;-95
2022/02/18 10:32:58;;;;;;;19.20;2.83;;;;;;;12.50;52.89;97460.13;4943816;28;20020;-96
2022/02/18 10:35:32;;;;;;;13.82;2.75;;;;;;;12.54;53.82;97460.56;4941419;28;20031;-94
2022/02/18 10:37:57;;;;;;;14.60;3.03;;;;;;;12.48;53.85;97456.06;4954832;28;20035;-96
2022/02/18 10:40:23;;;;;;;14.15;2.97;;;;;;;12.10;55.02;97458.91;4940381;28;20027;-94
2022/02/18 10:42:51;;;;;;;16.23;2.60;;;;;;;12.34;55.29;97441.94;4945181;28;20027;-96
2022/02/18 10:45:18;;;;;;;13.30;2.45;;;;;;;12.47;55.81;97449.16;4941680;28;20118;-95
2022/02/18 10:47:44;;;;;;;13.27;2.22;;;;;;;12.04;58.02;97459.63;4953533;28;20023;-94
2022/02/18 10:50:15;;;;;;;8.95;2.30;;;;;;;11.59;60.67;97466.75;4951453;29;20082;-96
2022/02/18 10:52:40;;;;;;;12.13;1.65;;;;;;;11.54;61.97;97458.63;4950363;28;20508;-95
2022/02/18 10:55:09;;;;;;;11.95;2.15;;;;;;;11.87;61.30;97459.84;4952688;28;20039;-94
2022/02/18 10:57:38;;;;;;;17.60;2.45;;;;;;;11.37;63.29;97453.53;4952126;28;20106;-96
2022/02/18 11:00:13;;;;;;;14.07;2.90;;;;;;;11.38;65.60;97491.97;4961510;28;20405;-93
2022/02/18 11:02:46;;;;;;;15.68;2.53;;;;;;;11.08;67.12;97514.75;4950939;28;20079;-95
2022/02/18 11:05:30;;;;;;;22.88;3.17;;;;;;;11.02;67.92;97516.28;4948801;29;20114;-96
2022/02/18 11:07:57;;;;;;;15.07;2.83;;;;;;;10.79;68.09;97523.38;4952214;29;20096;-96
2022/02/18 11:10:37;;;;;;;14.90;2.30;;;;;;;10.68;69.13;97559.53;4957725;28;20385;-93
2022/02/18 11:13:03;;;;;;;12.82;2.47;;;;;;;11.11;68.35;97546.69;4950792;28;20119;-92
2022/02/18 11:15:29;;;;;;;15.18;3.17;;;;;;;10.49;70.06;97554.75;4950344;28;20114;-92
2022/02/18 11:17:55;;;;;;;22.15;4.93;;;;;;;10.79;69.21;97552.25;4948406;28;20482;-94
2022/02/18 11:20:23;;;;;;;22.08;3.25;;;;;;;10.56;69.76;97550.41;4940097;28;20337;-93
2022/02/18 11:22:51;;;;;;;19.38;4.45;;;;;;;10.68;68.73;97591.03;4940068;28;20398;-93
2022/02/18 11:25:18;;;;;;;28.02;4.00;;;;;;;10.73;69.16;97580.00;4940423;29;20038;-93
2022/02/18 11:27:44;;;;;;;28.17;5.28;;;;;;;10.52;70.22;97622.59;4937168;28;20046;-92